Wetterdaten: Samstag, 21.02.2015
Datum Zeit Temp. A. Feuchte A. Luftdruck Regen Wind Richtung Richtung Sonnenschein ET UV Solar Taupunkt Windchill Windben Empfang
21.02.2015 00:00 -1,4 C 82 % 1007,5 hPa 0,0 l/m 0,0 km/h (0 Bft) S 176 0 min 0,000 mm 0,0 UV-I 0 W/m -4,1 C -1,4 C 0,0 km/h (0 Bft) 0,00 %
21.02.2015 00:15 -1,2 C 82 % 1007,1 hPa 0,0 l/m 0,0 km/h (0 Bft) S 176 0 min 0,000 mm 0,0 UV-I 0 W/m -3,9 C -1,2 C 0,0 km/h (0 Bft) 0,00 %
21.02.2015 00:30 -1,6 C 82 % 1006,9 hPa 0,0 l/m 0,0 km/h (0 Bft) S-SW 196 0 min 0,000 mm 0,0 UV-I 0 W/m -4,3 C -1,6 C 0,0 km/h (0 Bft) 0,00 %
21.02.2015 00:45 -1,9 C 83 % 1006,6 hPa 0,0 l/m 0,0 km/h (0 Bft) S-SW 204 0 min 0,000 mm 0,0 UV-I 0 W/m -4,4 C -1,9 C 0,0 km/h (0 Bft) 0,00 %
21.02.2015 01:00 -2,1 C 83 % 1006,3 hPa 0,0 l/m 0,0 km/h (0 Bft) S-SW 194 0 min 0,000 mm 0,0 UV-I 0 W/m -4,6 C -2,1 C 0,0 km/h (0 Bft) 0,00 %
21.02.2015 01:15 -2,1 C 84 % 1006,2 hPa 0,0 l/m 0,0 km/h (0 Bft) SW 216 0 min 0,000 mm 0,0 UV-I 0 W/m -4,4 C -2,1 C 0,0 km/h (0 Bft) 0,00 %
21.02.2015 01:30 -2,1 C 84 % 1005,8 hPa 0,0 l/m 0,0 km/h (0 Bft) SW 215 0 min 0,000 mm 0,0 UV-I 0 W/m -4,4 C -2,1 C 0,0 km/h (0 Bft) 0,00 %
21.02.2015 01:45 -2,4 C 80 % 1005,8 hPa 0,0 l/m 0,0 km/h (0 Bft) SW 215 0 min 0,000 mm 0,0 UV-I 0 W/m -5,4 C -2,4 C 0,0 km/h (0 Bft) 0,00 %
21.02.2015 02:00 -2,6 C 80 % 1005,6 hPa 0,0 l/m 0,0 km/h (0 Bft) SW 215 0 min 0,000 mm 0,0 UV-I 0 W/m -5,6 C -2,6 C 0,0 km/h (0 Bft) 0,00 %
21.02.2015 02:15 -2,8 C 80 % 1005,2 hPa 0,0 l/m 0,0 km/h (0 Bft) SW 215 0 min 0,000 mm 0,0 UV-I 0 W/m -5,8 C -2,8 C 0,0 km/h (0 Bft) 0,00 %
21.02.2015 02:30 -2,8 C 80 % 1005,1 hPa 0,0 l/m 0,0 km/h (0 Bft) SW 215 0 min 0,000 mm 0,0 UV-I 0 W/m -5,8 C -2,8 C 0,0 km/h (0 Bft) 0,00 %
21.02.2015 02:45 -2,8 C 80 % 1004,9 hPa 0,0 l/m 0,0 km/h (0 Bft) SW 215 0 min 0,000 mm 0,0 UV-I 0 W/m -5,8 C -2,8 C 0,0 km/h (0 Bft) 0,00 %
21.02.2015 03:00 -2,8 C 80 % 1004,5 hPa 0,0 l/m 0,0 km/h (0 Bft) SW 215 0 min 0,000 mm 0,0 UV-I 0 W/m -5,8 C -2,8 C 0,0 km/h (0 Bft) 0,00 %
21.02.2015 03:15 -2,8 C 80 % 1004,1 hPa 0,0 l/m 0,0 km/h (0 Bft) SW 215 0 min 0,000 mm 0,0 UV-I 0 W/m -5,8 C -2,8 C 0,0 km/h (0 Bft) 0,00 %
21.02.2015 03:30 -2,9 C 80 % 1003,9 hPa 0,0 l/m 0,0 km/h (0 Bft) SW 215 0 min 0,000 mm 0,0 UV-I 0 W/m -5,9 C -2,9 C 0,0 km/h (0 Bft) 0,00 %
21.02.2015 03:45 -2,9 C 80 % 1003,5 hPa 0,0 l/m 0,0 km/h (0 Bft) SW 215 0 min 0,000 mm 0,0 UV-I 0 W/m -5,9 C -2,9 C 0,0 km/h (0 Bft) 0,00 %
21.02.2015 04:00 -3,1 C 80 % 1003,6 hPa 0,0 l/m 0,0 km/h (0 Bft) SW 215 0 min 0,000 mm 0,0 UV-I 0 W/m -6,0 C -3,1 C 0,0 km/h (0 Bft) 0,00 %
21.02.2015 04:15 -3,2 C 80 % 1003,5 hPa 0,0 l/m 0,0 km/h (0 Bft) SW 215 0 min 0,000 mm 0,0 UV-I 0 W/m -6,1 C -3,2 C 0,0 km/h (0 Bft) 0,00 %
21.02.2015 04:30 -3,4 C 81 % 1003,3 hPa 0,0 l/m 0,0 km/h (0 Bft) SW 215 0 min 0,000 mm 0,0 UV-I 0 W/m -6,2 C -3,4 C 0,0 km/h (0 Bft) 0,00 %
21.02.2015 04:45 -3,6 C 81 % 1003,0 hPa 0,0 l/m 0,0 km/h (0 Bft) SW 215 0 min 0,000 mm 0,0 UV-I 0 W/m -6,4 C -3,6 C 0,0 km/h (0 Bft) 0,00 %
21.02.2015 05:00 -3,6 C 82 % 1002,9 hPa 0,0 l/m 0,0 km/h (0 Bft) SW 215 0 min 0,000 mm 0,0 UV-I 0 W/m -6,2 C -3,6 C 0,0 km/h (0 Bft) 0,00 %
21.02.2015 05:15 -3,6 C 82 % 1002,7 hPa 0,0 l/m 0,0 km/h (0 Bft) SW 215 0 min 0,000 mm 0,0 UV-I 0 W/m -6,2 C -3,6 C 0,0 km/h (0 Bft) 0,00 %
21.02.2015 05:30 -3,5 C 82 % 1002,7 hPa 0,0 l/m 0,0 km/h (0 Bft) SW 215 0 min 0,000 mm 0,0 UV-I 0 W/m -6,1 C -3,5 C 0,0 km/h (0 Bft) 0,00 %
21.02.2015 05:45 -3,7 C 82 % 1002,7 hPa 0,0 l/m 0,0 km/h (0 Bft) SW 215 0 min 0,000 mm 0,0 UV-I 0 W/m -6,3 C -3,7 C 0,0 km/h (0 Bft) 0,00 %
21.02.2015 06:00 -3,8 C 82 % 1002,5 hPa 0,0 l/m 0,0 km/h (0 Bft) SW 215 0 min 0,000 mm 0,0 UV-I 0 W/m -6,4 C -3,8 C 0,0 km/h (0 Bft) 0,00 %
21.02.2015 06:15 -3,7 C 82 % 1002,5 hPa 0,0 l/m 0,0 km/h (0 Bft) SW 215 0 min 0,000 mm 0,0 UV-I 0 W/m -6,3 C -3,7 C 0,0 km/h (0 Bft) 0,00 %
21.02.2015 06:30 -3,6 C 82 % 1002,7 hPa 0,0 l/m 0,0 km/h (0 Bft) SW 215 0 min 0,000 mm 0,0 UV-I 0 W/m -6,2 C -3,6 C 0,0 km/h (0 Bft) 0,00 %
21.02.2015 06:45 -3,6 C 82 % 1002,5 hPa 0,0 l/m 0,0 km/h (0 Bft) SW 215 0 min 0,000 mm 0,0 UV-I 0 W/m -6,2 C -3,6 C 0,0 km/h (0 Bft) 0,00 %
21.02.2015 07:00 -3,6 C 82 % 1002,8 hPa 0,0 l/m 0,0 km/h (0 Bft) SW 215 0 min 0,000 mm 0,0 UV-I 0 W/m -6,2 C -3,6 C 0,0 km/h (0 Bft) 0,00 %
21.02.2015 07:15 -3,5 C 81 % 1002,9 hPa 0,0 l/m 0,0 km/h (0 Bft) SW 215 0 min 0,000 mm 0,0 UV-I 0 W/m -6,3 C -3,5 C 0,0 km/h (0 Bft) 0,00 %
21.02.2015 07:30 -3,4 C 81 % 1002,6 hPa 0,0 l/m 0,0 km/h (0 Bft) SW 215 0 min 0,000 mm 0,0 UV-I 7 W/m -6,2 C -3,4 C 0,0 km/h (0 Bft) 0,00 %
21.02.2015 07:45 -3,0 C 81 % 1002,7 hPa 0,0 l/m 0,0 km/h (0 Bft) SW 215 0 min 0,000 mm 0,0 UV-I 22 W/m -5,8 C -3,0 C 0,0 km/h (0 Bft) 0,00 %
21.02.2015 08:00 -2,8 C 81 % 1002,5 hPa 0,0 l/m 0,0 km/h (0 Bft) SW 215 0 min 0,000 mm 0,0 UV-I 36 W/m -5,6 C -2,8 C 0,0 km/h (0 Bft) 0,00 %
21.02.2015 08:15 -2,4 C 85 % 1002,9 hPa 0,0 l/m 0,0 km/h (0 Bft) SW 215 0 min 0,000 mm 1,0 UV-I 48 W/m -4,6 C -2,4 C 0,0 km/h (0 Bft) 0,00 %
21.02.2015 08:30 -2,0 C 85 % 1002,8 hPa 0,0 l/m 0,0 km/h (0 Bft) SW 215 0 min 0,000 mm 1,0 UV-I 65 W/m -4,2 C -2,0 C 0,0 km/h (0 Bft) 0,00 %
21.02.2015 08:45 -1,2 C 84 % 1002,6 hPa 0,0 l/m 0,0 km/h (0 Bft) SW 215 0 min 0,000 mm 1,0 UV-I 85 W/m -3,5 C -1,2 C 0,0 km/h (0 Bft) 0,00 %
21.02.2015 09:00 -0,2 C 81 % 1002,5 hPa 0,0 l/m 0,0 km/h (0 Bft) S-SW 207 0 min 0,000 mm 1,0 UV-I 113 W/m -3,1 C -0,2 C 0,0 km/h (0 Bft) 0,00 %
21.02.2015 09:15 1,3 C 72 % 1002,4 hPa 0,0 l/m 0,0 km/h (0 Bft) W-SW 252 0 min 0,000 mm 2,0 UV-I 126 W/m -3,2 C 1,3 C 0,0 km/h (0 Bft) 0,00 %
21.02.2015 09:30 2,2 C 66 % 1002,0 hPa 0,0 l/m 0,0 km/h (0 Bft) SW 216 0 min 0,000 mm 2,0 UV-I 139 W/m -3,5 C 2,2 C 0,0 km/h (0 Bft) 0,00 %
21.02.2015 09:45 2,8 C 69 % 1001,6 hPa 0,0 l/m 0,0 km/h (0 Bft) O 85 0 min 0,000 mm 2,0 UV-I 150 W/m -2,3 C 2,8 C 0,0 km/h (0 Bft) 0,00 %
21.02.2015 10:00 2,8 C 67 % 1001,5 hPa 0,0 l/m 0,0 km/h (0 Bft) W-SW 252 0 min 0,000 mm 2,0 UV-I 141 W/m -2,7 C 2,8 C 0,0 km/h (0 Bft) 0,00 %
21.02.2015 10:15 3,2 C 69 % 1001,5 hPa 0,0 l/m 0,0 km/h (0 Bft) W-SW 253 0 min 0,000 mm 2,0 UV-I 142 W/m -1,9 C 3,2 C 0,0 km/h (0 Bft) 0,00 %
21.02.2015 10:30 3,3 C 72 % 1001,3 hPa 0,0 l/m 2,2 km/h (1 Bft) O-SO 110 0 min 0,000 mm 2,0 UV-I 136 W/m -1,3 C 3,3 C 4,0 km/h (1 Bft) 0,00 %
21.02.2015 10:45 2,6 C 69 % 1001,4 hPa 0,0 l/m 2,2 km/h (1 Bft) NO 45 0 min 0,000 mm 2,0 UV-I 190 W/m -2,5 C 2,6 C 4,0 km/h (1 Bft) 0,00 %
21.02.2015 11:00 2,2 C 70 % 1001,7 hPa 0,0 l/m 0,0 km/h (0 Bft) N-NW 327 0 min 0,000 mm 2,0 UV-I 212 W/m -2,7 C 2,2 C 0,0 km/h (0 Bft) 0,00 %
21.02.2015 11:15 2,8 C 72 % 1001,4 hPa 0,0 l/m 0,0 km/h (0 Bft) W-SW 252 0 min 0,000 mm 2,0 UV-I 244 W/m -1,7 C 2,8 C 0,0 km/h (0 Bft) 0,00 %
21.02.2015 11:30 3,2 C 72 % 1001,1 hPa 0,0 l/m 2,2 km/h (1 Bft) O-SO 107 15 min 0,000 mm 2,0 UV-I 311 W/m -1,3 C 3,2 C 4,0 km/h (1 Bft) 0,00 %
21.02.2015 11:45 3,2 C 69 % 1001,1 hPa 0,0 l/m 1,8 km/h (1 Bft) O-NO 73 15 min 0,000 mm 2,0 UV-I 314 W/m -1,9 C 3,2 C 4,0 km/h (1 Bft) 0,00 %
21.02.2015 12:00 3,7 C 65 % 1000,9 hPa 0,0 l/m 0,0 km/h (0 Bft) S-SW 196 15 min 0,000 mm 2,0 UV-I 344 W/m -2,3 C 3,7 C 0,0 km/h (0 Bft) 0,00 %
21.02.2015 12:15 4,3 C 61 % 1000,7 hPa 0,0 l/m 0,0 km/h (0 Bft) N-NW 330 15 min 0,000 mm 2,0 UV-I 333 W/m -2,5 C 4,3 C 0,0 km/h (0 Bft) 0,00 %
21.02.2015 12:30 4,9 C 58 % 1000,2 hPa 0,0 l/m 1,8 km/h (1 Bft) O 100 15 min 0,000 mm 2,0 UV-I 356 W/m -2,7 C 4,9 C 4,0 km/h (1 Bft) 0,00 %
21.02.2015 12:45 5,3 C 59 % 999,8 hPa 0,0 l/m 0,0 km/h (0 Bft) SW 233 15 min 0,000 mm 2,0 UV-I 376 W/m -2,0 C 5,3 C 0,0 km/h (0 Bft) 0,00 %
21.02.2015 13:00 5,7 C 59 % 999,5 hPa 0,0 l/m 0,0 km/h (0 Bft) O 83 15 min 0,000 mm 2,0 UV-I 345 W/m -1,7 C 5,7 C 0,0 km/h (0 Bft) 0,00 %
21.02.2015 13:15 6,0 C 59 % 999,3 hPa 0,0 l/m 1,4 km/h (1 Bft) O-SO 119 15 min 0,000 mm 2,0 UV-I 349 W/m -1,4 C 6,0 C 4,0 km/h (1 Bft) 0,00 %
21.02.2015 13:30 6,3 C 56 % 999,2 hPa 0,0 l/m 1,4 km/h (1 Bft) O-SO 120 15 min 0,000 mm 2,0 UV-I 340 W/m -1,8 C 6,3 C 4,0 km/h (1 Bft) 0,00 %
21.02.2015 13:45 6,4 C 52 % 998,8 hPa 0,0 l/m 4,3 km/h (1 Bft) O-SO 114 15 min 0,000 mm 2,0 UV-I 322 W/m -2,7 C 6,4 C 7,9 km/h (2 Bft) 0,00 %
21.02.2015 14:00 6,3 C 55 % 998,7 hPa 0,0 l/m 5,4 km/h (1 Bft) O-SO 108 15 min 0,000 mm 2,0 UV-I 311 W/m -2,1 C 6,3 C 7,9 km/h (2 Bft) 0,00 %
21.02.2015 14:15 6,5 C 58 % 998,2 hPa 0,0 l/m 5,8 km/h (2 Bft) O 97 15 min 0,000 mm 2,0 UV-I 300 W/m -1,2 C 6,5 C 7,9 km/h (2 Bft) 0,00 %
21.02.2015 14:30 6,9 C 55 % 998,0 hPa 0,0 l/m 2,9 km/h (1 Bft) O 79 15 min 0,000 mm 2,0 UV-I 244 W/m -1,5 C 6,9 C 4,0 km/h (1 Bft) 0,00 %
21.02.2015 14:45 7,0 C 54 % 997,7 hPa 0,0 l/m 4,3 km/h (1 Bft) O 96 15 min 0,000 mm 1,0 UV-I 222 W/m -1,7 C 7,0 C 7,9 km/h (2 Bft) 0,00 %
21.02.2015 15:00 7,0 C 57 % 997,4 hPa 0,0 l/m 6,5 km/h (2 Bft) O-SO 104 15 min 0,000 mm 1,0 UV-I 276 W/m -0,9 C 6,9 C 7,9 km/h (2 Bft) 0,00 %
21.02.2015 15:15 7,0 C 56 % 997,4 hPa 0,0 l/m 8,3 km/h (2 Bft) O 97 15 min 0,000 mm 1,0 UV-I 229 W/m -1,2 C 5,5 C 11,9 km/h (2 Bft) 0,00 %
21.02.2015 15:30 7,1 C 54 % 997,1 hPa 0,0 l/m 4,0 km/h (1 Bft) O-SO 105 15 min 0,000 mm 1,0 UV-I 182 W/m -1,6 C 7,1 C 4,0 km/h (1 Bft) 0,00 %
21.02.2015 15:45 7,1 C 54 % 997,1 hPa 0,0 l/m 7,2 km/h (2 Bft) O 99 15 min 0,000 mm 1,0 UV-I 330 W/m -1,6 C 6,4 C 7,9 km/h (2 Bft) 0,00 %
21.02.2015 16:00 7,0 C 56 % 996,9 hPa 0,0 l/m 6,5 km/h (2 Bft) S-SO 157 15 min 0,000 mm 1,0 UV-I 253 W/m -1,2 C 6,9 C 7,9 km/h (2 Bft) 0,00 %
21.02.2015 16:15 6,9 C 56 % 996,7 hPa 0,0 l/m 4,0 km/h (1 Bft) O 86 15 min 0,000 mm 1,0 UV-I 222 W/m -1,3 C 6,9 C 7,9 km/h (2 Bft) 0,00 %
21.02.2015 16:30 7,0 C 54 % 996,6 hPa 0,0 l/m 2,9 km/h (1 Bft) O 97 15 min 0,000 mm 1,0 UV-I 140 W/m -1,7 C 7,0 C 7,9 km/h (2 Bft) 0,00 %
21.02.2015 16:45 6,7 C 54 % 996,6 hPa 0,0 l/m 0,0 km/h (0 Bft) S 182 15 min 0,000 mm 0,0 UV-I 74 W/m -1,9 C 6,7 C 0,0 km/h (0 Bft) 0,00 %
21.02.2015 17:00 5,6 C 58 % 996,5 hPa 0,0 l/m 0,0 km/h (0 Bft) S 187 0 min 0,000 mm 0,0 UV-I 19 W/m -2,0 C 5,6 C 0,0 km/h (0 Bft) 0,00 %
21.02.2015 17:15 4,9 C 60 % 996,9 hPa 0,0 l/m 1,8 km/h (1 Bft) O-SO 109 0 min 0,000 mm 0,0 UV-I 0 W/m -2,2 C 4,9 C 4,0 km/h (1 Bft) 0,00 %
21.02.2015 17:30 4,4 C 62 % 997,2 hPa 0,0 l/m 0,0 km/h (0 Bft) S-SW 195 0 min 0,000 mm 0,0 UV-I 0 W/m -2,2 C 4,4 C 0,0 km/h (0 Bft) 0,00 %
21.02.2015 17:45 3,8 C 63 % 997,2 hPa 0,0 l/m 0,0 km/h (0 Bft) S 174 0 min 0,000 mm 0,0 UV-I 0 W/m -2,6 C 3,8 C 0,0 km/h (0 Bft) 0,00 %
21.02.2015 18:00 3,5 C 64 % 997,5 hPa 0,0 l/m 0,0 km/h (0 Bft) S 181 0 min 0,000 mm 0,0 UV-I 0 W/m -2,7 C 3,5 C 0,0 km/h (0 Bft) 0,00 %
21.02.2015 18:15 3,4 C 65 % 997,5 hPa 0,0 l/m 0,0 km/h (0 Bft) S 188 0 min 0,000 mm 0,0 UV-I 0 W/m -2,5 C 3,4 C 0,0 km/h (0 Bft) 0,00 %
21.02.2015 18:30 3,1 C 67 % 997,5 hPa 0,0 l/m 0,0 km/h (0 Bft) S 179 0 min 0,000 mm 0,0 UV-I 0 W/m -2,4 C 3,1 C 0,0 km/h (0 Bft) 0,00 %
21.02.2015 18:45 3,3 C 66 % 997,5 hPa 0,0 l/m 0,0 km/h (0 Bft) S 174 0 min 0,000 mm 0,0 UV-I 0 W/m -2,4 C 3,3 C 0,0 km/h (0 Bft) 0,00 %
21.02.2015 19:00 3,2 C 66 % 997,6 hPa 0,0 l/m 0,0 km/h (0 Bft) S 183 0 min 0,000 mm 0,0 UV-I 0 W/m -2,5 C 3,2 C 0,0 km/h (0 Bft) 0,00 %
21.02.2015 19:15 3,5 C 64 % 997,7 hPa 0,0 l/m 0,0 km/h (0 Bft) S-SW 207 0 min 0,000 mm 0,0 UV-I 0 W/m -2,7 C 3,5 C 0,0 km/h (0 Bft) 0,00 %
21.02.2015 19:30 3,5 C 63 % 997,6 hPa 0,0 l/m 0,0 km/h (0 Bft) S 183 0 min 0,000 mm 0,0 UV-I 0 W/m -2,9 C 3,5 C 0,0 km/h (0 Bft) 0,00 %
21.02.2015 19:45 3,4 C 64 % 997,7 hPa 0,0 l/m 0,0 km/h (0 Bft) S 176 0 min 0,000 mm 0,0 UV-I 0 W/m -2,7 C 3,4 C 0,0 km/h (0 Bft) 0,00 %
21.02.2015 20:00 3,1 C 64 % 997,7 hPa 0,0 l/m 0,0 km/h (0 Bft) SO 138 0 min 0,000 mm 0,0 UV-I 0 W/m -3,0 C 3,1 C 0,0 km/h (0 Bft) 0,00 %
21.02.2015 20:15 2,9 C 65 % 997,7 hPa 0,0 l/m 0,0 km/h (0 Bft) S-SW 198 0 min 0,000 mm 0,0 UV-I 0 W/m -3,0 C 2,9 C 0,0 km/h (0 Bft) 0,00 %
21.02.2015 20:30 2,5 C 62 % 997,9 hPa 0,0 l/m 0,0 km/h (0 Bft) S 184 0 min 0,000 mm 0,0 UV-I 0 W/m -4,0 C 2,5 C 0,0 km/h (0 Bft) 0,00 %
21.02.2015 20:45 2,3 C 62 % 997,8 hPa 0,0 l/m 0,0 km/h (0 Bft) S-SW 207 0 min 0,000 mm 0,0 UV-I 0 W/m -4,2 C 2,3 C 0,0 km/h (0 Bft) 0,00 %
21.02.2015 21:00 2,0 C 63 % 997,7 hPa 0,0 l/m 0,0 km/h (0 Bft) SW 222 0 min 0,000 mm 0,0 UV-I 0 W/m -4,3 C 2,0 C 0,0 km/h (0 Bft) 0,00 %
21.02.2015 21:15 1,9 C 63 % 998,0 hPa 0,0 l/m 0,0 km/h (0 Bft) W-SW 251 0 min 0,000 mm 0,0 UV-I 0 W/m -4,4 C 1,9 C 0,0 km/h (0 Bft) 0,00 %
21.02.2015 21:30 1,2 C 69 % 998,7 hPa 0,0 l/m 0,0 km/h (0 Bft) S-SW 194 0 min 0,000 mm 0,0 UV-I 0 W/m -3,8 C 1,2 C 0,0 km/h (0 Bft) 0,00 %
21.02.2015 21:45 1,4 C 69 % 998,8 hPa 0,0 l/m 0,0 km/h (0 Bft) S-SW 201 0 min 0,000 mm 0,0 UV-I 0 W/m -3,7 C 1,4 C 0,0 km/h (0 Bft) 0,00 %
21.02.2015 22:00 1,4 C 69 % 998,7 hPa 0,0 l/m 0,0 km/h (0 Bft) S-SW 205 0 min 0,000 mm 0,0 UV-I 0 W/m -3,7 C 1,4 C 0,0 km/h (0 Bft) 0,00 %
21.02.2015 22:15 1,2 C 69 % 999,2 hPa 0,0 l/m 0,0 km/h (0 Bft) W-SW 251 0 min 0,000 mm 0,0 UV-I 0 W/m -3,8 C 1,2 C 0,0 km/h (0 Bft) 0,00 %
21.02.2015 22:30 0,9 C 70 % 999,6 hPa 0,0 l/m 0,0 km/h (0 Bft) SW 233 0 min 0,000 mm 0,0 UV-I 0 W/m -3,9 C 0,9 C 0,0 km/h (0 Bft) 0,00 %
21.02.2015 22:45 0,9 C 70 % 999,5 hPa 0,0 l/m 0,0 km/h (0 Bft) S 178 0 min 0,000 mm 0,0 UV-I 0 W/m -3,9 C 0,9 C 0,0 km/h (0 Bft) 0,00 %
21.02.2015 23:00 0,8 C 72 % 999,6 hPa 0,0 l/m 0,0 km/h (0 Bft) SW 222 0 min 0,000 mm 0,0 UV-I 0 W/m -3,7 C 0,8 C 0,0 km/h (0 Bft) 0,00 %
21.02.2015 23:15 0,7 C 73 % 999,4 hPa 0,0 l/m 0,0 km/h (0 Bft) S-SW 201 0 min 0,000 mm 0,0 UV-I 0 W/m -3,6 C 0,7 C 0,0 km/h (0 Bft) 0,00 %
21.02.2015 23:30 0,5 C 73 % 999,8 hPa 0,0 l/m 0,0 km/h (0 Bft) SW 219 0 min 0,000 mm 0,0 UV-I 0 W/m -3,8 C 0,5 C 0,0 km/h (0 Bft) 0,00 %
21.02.2015 23:45 0,6 C 73 % 999,8 hPa 0,0 l/m 0,0 km/h (0 Bft) S 173 0 min 0,000 mm 0,0 UV-I 0 W/m -3,7 C 0,6 C 0,0 km/h (0 Bft) 0,00 %
_ Min-Zeit 06:00 13:45 17:00 - 00:00 - - - - - - 06:00 06:00 00:00 00:00
Minimum _ -3,8 C 52 % 996,5 hPa - 0,0 km/h (0 Bft) - - - - - - -6,4 C -3,8 C 0,0 km/h (0 Bft) 0,00 %
_ Max-Zeit 15:30 08:15 00:00 00:00 15:15 - - 11:30 00:00 09:15 12:45 15:00 15:30 15:15 00:00
Maximum _ 7,1 C 85 % 1007,5 hPa 0,0 l/m 8,3 km/h
O (2 Bft)
- - 15 min 0,000 mm 2,0 UV-I 376 W/m -0,9 C 7,1 C 11,9 km/h
O (2 Bft)
0,00 %
Durchschnitt _ 1,3 C 70 % 1000,8 hPa #0,0 l/m 0,8 km/h (0 Bft) O-SO - #5:30 h #0,000 mm 1,6 UV-I 206 W/m -3,7 C 1,3 C 1,3 km/h (1 Bft) 0,00 %